Time;durP1;ratioP1;P1;durP2;ratioP2;P2;SDS_P1;SDS_P2;PMS_P1;PMS_P2;Temp;Humidity;BMP_temperature;BMP_pressure;BME280_temperature;BME280_humidity;BME280_pressure;Samples;Min_cycle;Max_cycle;Signal;HPM_P1;HPM_P2
2023/06/24 00:03:11;;;;;;;6.70;4.70;;;;;;;17.71;100.00;100569.31;180654;1257;43579;-57
2023/06/24 00:07:16;;;;;;;4.90;4.00;;;;;;;17.48;100.00;100576.17;180658;1258;45932;-57
2023/06/24 00:11:21;;;;;;;8.00;4.10;;;;;;;17.31;100.00;100579.99;180548;1258;44881;-56
2023/06/24 00:15:24;;;;;;;5.70;5.10;;;;;;;17.16;100.00;100582.08;180652;1257;45008;-57
2023/06/24 00:19:57;;;;;;;7.50;4.20;;;;;;;17.01;100.00;100599.52;180717;1257;58390;-57
2023/06/24 00:24:04;;;;;;;7.20;4.50;;;;;;;16.90;100.00;100606.19;180609;1257;43934;-57
2023/06/24 00:28:07;;;;;;;16.40;6.20;;;;;;;16.79;100.00;100610.73;180673;1257;45011;-58
2023/06/24 00:32:31;;;;;;;10.10;6.30;;;;;;;16.75;100.00;100607.92;180681;1257;44364;-57
2023/06/24 00:42:20;;;;;;;6.40;5.80;;;;;;;16.56;100.00;100607.02;180540;1257;60476;-58
2023/06/24 00:46:25;;;;;;;6.10;5.30;;;;;;;16.45;100.00;100604.48;180468;1257;43898;-60
2023/06/24 00:50:30;;;;;;;10.20;5.00;;;;;;;16.36;100.00;100610.47;180575;1261;45979;-60
2023/06/24 00:54:33;;;;;;;7.20;5.70;;;;;;;16.30;100.00;100622.86;180469;1258;46050;-59
2023/06/24 00:58:36;;;;;;;9.30;5.30;;;;;;;16.19;100.00;100629.85;180421;1257;44997;-59
2023/06/24 01:02:42;;;;;;;7.10;4.70;;;;;;;16.12;100.00;100638.75;180329;1257;58567;-59
2023/06/24 01:06:49;;;;;;;6.00;4.80;;;;;;;16.08;100.00;100642.20;180408;1257;45150;-59
2023/06/24 01:11:18;;;;;;;7.00;5.60;;;;;;;16.07;100.00;100651.61;180632;1257;45915;-59
2023/06/24 01:15:22;;;;;;;6.30;4.10;;;;;;;16.04;100.00;100656.39;180665;1257;43676;-61
2023/06/24 01:20:10;;;;;;;5.80;4.60;;;;;;;16.04;100.00;100667.59;180521;1257;45267;-60
2023/06/24 01:24:42;;;;;;;5.70;5.20;;;;;;;15.98;100.00;100674.66;180526;1257;58398;-61
2023/06/24 01:29:21;;;;;;;6.50;4.70;;;;;;;16.01;100.00;100675.80;180421;1257;43727;-61
2023/06/24 01:34:00;;;;;;;6.00;4.50;;;;;;;16.02;100.00;100687.83;180511;1257;43776;-61
2023/06/24 01:38:22;;;;;;;5.70;5.10;;;;;;;16.03;100.00;100702.96;180324;1258;44811;-61
2023/06/24 01:42:25;;;;;;;7.20;5.90;;;;;;;16.07;100.00;100712.56;180306;1259;45978;-60
2023/06/24 01:57:40;;;;;;;6.70;3.30;;;;;;;16.51;100.00;100720.23;177349;1267;582611;-83
2023/06/24 02:01:43;;;;;;;9.00;4.70;;;;;;;16.62;100.00;100731.52;180304;1248;60085;-83
2023/06/24 02:05:47;;;;;;;5.70;4.10;;;;;;;16.58;100.00;100734.97;180937;1247;46055;-83
2023/06/24 02:09:51;;;;;;;6.80;5.10;;;;;;;16.51;100.00;100737.14;180394;1249;46043;-83
2023/06/24 02:13:54;;;;;;;6.00;5.20;;;;;;;16.46;100.00;100736.88;180578;1251;46084;-83
2023/06/24 02:17:57;;;;;;;6.80;5.30;;;;;;;16.37;100.00;100736.45;180814;1248;45984;-84
2023/06/24 02:22:01;;;;;;;8.30;5.00;;;;;;;16.33;100.00;100741.60;180494;1247;58533;-83
2023/06/24 02:26:05;;;;;;;10.40;4.10;;;;;;;16.29;100.00;100748.58;182198;1235;46055;-84
2023/06/24 02:30:09;;;;;;;7.50;4.30;;;;;;;16.26;100.00;100747.48;181973;1234;46092;-84
2023/06/24 02:34:10;;;;;;;5.60;4.60;;;;;;;16.13;100.00;100749.19;181961;1236;45992;-84
2023/06/24 02:38:12;;;;;;;6.00;4.70;;;;;;;16.13;100.00;100754.23;182014;1236;45960;-85
2023/06/24 02:42:14;;;;;;;4.10;3.70;;;;;;;16.10;100.00;100758.95;181972;1235;59872;-84
2023/06/24 02:46:17;;;;;;;6.60;3.70;;;;;;;16.12;100.00;100757.05;182035;1235;46010;-84
2023/06/24 02:50:20;;;;;;;5.90;3.70;;;;;;;16.15;100.00;100758.90;182426;1238;45957;-84
2023/06/24 02:54:23;;;;;;;6.90;6.00;;;;;;;16.06;100.00;100765.85;182185;1234;46018;-84
2023/06/24 02:58:31;;;;;;;8.40;5.20;;;;;;;16.09;100.00;100774.45;181967;1240;46174;-85
2023/06/24 03:02:32;;;;;;;5.20;4.50;;;;;;;16.08;100.00;100783.04;181957;1235;59155;-85
2023/06/24 03:06:37;;;;;;;8.40;4.90;;;;;;;16.09;100.00;100792.00;182263;1239;46149;-86
2023/06/24 03:10:39;;;;;;;5.80;4.60;;;;;;;16.12;100.00;100795.13;182418;1237;45958;-85
2023/06/24 03:14:41;;;;;;;5.70;3.80;;;;;;;16.09;100.00;100799.34;182351;1239;46056;-85
2023/06/24 03:18:42;;;;;;;6.50;4.60;;;;;;;16.07;100.00;100801.54;182336;1236;45954;-85
2023/06/24 03:22:44;;;;;;;4.40;4.00;;;;;;;16.01;100.00;100805.81;182529;1235;58151;-85
2023/06/24 03:26:46;;;;;;;8.20;4.50;;;;;;;16.04;100.00;100816.16;181875;1241;46167;-85
2023/06/24 03:30:48;;;;;;;8.80;3.40;;;;;;;16.09;100.00;100820.96;182383;1235;46082;-86
2023/06/24 03:34:50;;;;;;;3.70;3.30;;;;;;;16.12;100.00;100833.95;181983;1235;45948;-85
2023/06/24 03:38:52;;;;;;;9.20;4.00;;;;;;;16.14;100.00;100837.87;182315;1236;45938;-85
2023/06/24 03:42:53;;;;;;;7.70;3.60;;;;;;;16.18;100.00;100840.92;182217;1235;59467;-85
2023/06/24 03:46:55;;;;;;;6.80;4.70;;;;;;;16.23;100.00;100845.25;181861;1235;46192;-87
2023/06/24 03:50:59;;;;;;;8.50;4.30;;;;;;;16.24;100.00;100850.89;182402;1237;45941;-90
2023/06/24 03:59:25;;;;;;;5.20;3.90;;;;;;;16.21;100.00;100853.33;184039;1237;44638;-90
2023/06/24 04:03:31;;;;;;;7.90;5.00;;;;;;;16.24;100.00;100846.91;182152;1241;59940;-89
2023/06/24 04:07:35;;;;;;;6.90;5.30;;;;;;;16.34;100.00;100843.97;181912;1238;46103;-88
2023/06/24 04:11:37;;;;;;;6.90;4.30;;;;;;;16.38;100.00;100841.27;181557;1238;46042;-88
2023/06/24 04:15:39;;;;;;;13.00;4.70;;;;;;;16.45;100.00;100837.09;181470;1238;46073;-88
2023/06/24 04:19:41;;;;;;;7.50;4.50;;;;;;;16.52;100.00;100832.40;181449;1237;46103;-87
2023/06/24 04:23:43;;;;;;;5.50;4.40;;;;;;;16.56;100.00;100836.46;181784;1241;58019;-86
2023/06/24 04:27:45;;;;;;;5.90;4.20;;;;;;;16.58;100.00;100836.84;182820;1237;46027;-87
2023/06/24 04:31:47;;;;;;;7.20;5.10;;;;;;;16.56;100.00;100832.19;181836;1238;46061;-86
2023/06/24 04:35:51;;;;;;;6.10;4.10;;;;;;;16.56;100.00;100837.94;181682;1237;45892;-86
2023/06/24 04:39:53;;;;;;;6.90;6.10;;;;;;;16.61;100.00;100835.46;181790;1238;46086;-86
2023/06/24 04:43:54;;;;;;;6.20;5.10;;;;;;;16.74;100.00;100843.21;181852;1241;59266;-86
2023/06/24 04:47:56;;;;;;;5.90;4.50;;;;;;;16.74;100.00;100845.34;181734;1239;45989;-86
2023/06/24 04:52:02;;;;;;;10.40;5.50;;;;;;;16.74;100.00;100848.92;181613;1238;46087;-86
2023/06/24 04:56:04;;;;;;;7.80;5.20;;;;;;;16.68;100.00;100849.10;181636;1238;45965;-86
2023/06/24 05:00:07;;;;;;;8.40;5.20;;;;;;;16.67;100.00;100852.95;181671;1238;45939;-86
2023/06/24 05:04:09;;;;;;;8.50;7.30;;;;;;;16.69;100.00;100860.32;181608;1239;59269;-87
2023/06/24 05:08:11;;;;;;;10.50;5.90;;;;;;;16.67;100.00;100862.05;181626;1238;45951;-85
2023/06/24 05:12:13;;;;;;;6.10;4.90;;;;;;;16.74;100.00;100866.48;181902;1241;46087;-85
2023/06/24 05:16:16;;;;;;;9.80;6.80;;;;;;;16.76;100.00;100868.59;181982;1241;46186;-86
2023/06/24 05:20:18;;;;;;;11.60;7.60;;;;;;;16.83;100.00;100869.84;182010;1241;46066;-86
2023/06/24 05:24:20;;;;;;;7.50;6.70;;;;;;;16.97;100.00;100872.77;181881;1238;58100;-86
2023/06/24 05:28:22;;;;;;;10.40;8.50;;;;;;;17.10;100.00;100875.63;181681;1237;44104;-86
2023/06/24 05:32:24;;;;;;;12.20;9.50;;;;;;;17.20;100.00;100872.83;182605;1238;45902;-87
2023/06/24 05:36:26;;;;;;;10.70;9.60;;;;;;;17.39;100.00;100866.85;181834;1241;45905;-86
2023/06/24 05:40:28;;;;;;;13.10;10.30;;;;;;;17.52;100.00;100866.76;181377;1239;46105;-87
2023/06/24 05:44:31;;;;;;;17.40;12.50;;;;;;;17.65;100.00;100870.87;181542;1241;58519;-87
2023/06/24 05:48:33;;;;;;;12.70;9.40;;;;;;;17.73;100.00;100873.91;181690;1238;46085;-87
2023/06/24 05:52:35;;;;;;;13.30;9.20;;;;;;;17.80;100.00;100877.16;181981;1238;46099;-87
2023/06/24 05:56:37;;;;;;;10.50;8.50;;;;;;;17.83;100.00;100879.41;181431;1238;46058;-87
2023/06/24 06:00:41;;;;;;;11.70;8.70;;;;;;;17.90;100.00;100880.27;181875;1240;46170;-87
2023/06/24 06:04:44;;;;;;;11.80;10.50;;;;;;;17.98;100.00;100876.77;181706;1239;59558;-87
2023/06/24 06:08:47;;;;;;;10.30;8.60;;;;;;;18.03;100.00;100880.42;182075;1237;46071;-87
2023/06/24 06:12:49;;;;;;;10.90;8.90;;;;;;;18.09;100.00;100882.82;182150;1240;45868;-87
2023/06/24 06:16:51;;;;;;;13.70;9.00;;;;;;;18.09;100.00;100883.59;182111;1239;46054;-87
2023/06/24 06:20:53;;;;;;;11.80;8.30;;;;;;;18.09;100.00;100889.79;181724;1241;46047;-87
2023/06/24 06:24:55;;;;;;;10.20;8.60;;;;;;;17.99;100.00;100894.62;181689;1239;59323;-87
2023/06/24 06:28:57;;;;;;;9.20;6.20;;;;;;;18.02;100.00;100891.95;181796;1238;45856;-87
2023/06/24 06:32:59;;;;;;;9.70;8.70;;;;;;;18.04;100.00;100893.98;181799;1238;46101;-86
2023/06/24 06:37:01;;;;;;;11.70;8.00;;;;;;;18.08;100.00;100893.92;182619;1236;45928;-88
2023/06/24 06:41:03;;;;;;;9.90;8.80;;;;;;;18.15;100.00;100888.88;182286;1240;46084;-87
2023/06/24 06:45:07;;;;;;;14.80;10.30;;;;;;;18.19;100.00;100890.84;182074;1237;58466;-88
2023/06/24 06:49:09;;;;;;;10.60;8.40;;;;;;;18.24;100.00;100889.72;181644;1236;46063;-87
2023/06/24 06:53:11;;;;;;;11.80;9.90;;;;;;;18.32;100.00;100889.25;182075;1238;46041;-88
2023/06/24 06:57:13;;;;;;;24.80;11.70;;;;;;;18.35;100.00;100888.92;181706;1237;46070;-88
2023/06/24 07:01:15;;;;;;;9.70;8.70;;;;;;;18.37;100.00;100895.02;181861;1238;46074;-89
2023/06/24 07:05:18;;;;;;;11.00;9.80;;;;;;;18.31;100.00;100892.45;182109;1240;59293;-89
2023/06/24 07:09:19;;;;;;;11.40;9.90;;;;;;;18.25;100.00;100890.52;182042;1236;46169;-88
2023/06/24 07:13:21;;;;;;;14.70;12.90;;;;;;;18.27;100.00;100888.85;181983;1238;46201;-89
2023/06/24 07:17:23;;;;;;;11.40;10.30;;;;;;;18.35;100.00;100888.96;181971;1235;46109;-90
2023/06/24 07:21:28;;;;;;;15.90;10.80;;;;;;;18.52;100.00;100889.55;182133;1236;46049;-86
2023/06/24 07:25:30;;;;;;;15.20;13.70;;;;;;;18.50;100.00;100890.96;182628;1240;59720;-89
2023/06/24 07:29:33;;;;;;;11.10;9.80;;;;;;;18.65;100.00;100890.48;182003;1236;46112;-89
2023/06/24 07:33:36;;;;;;;15.10;12.00;;;;;;;18.71;100.00;100891.09;182416;1240;46055;-90
2023/06/24 07:37:38;;;;;;;12.10;10.90;;;;;;;18.85;100.00;100889.58;182241;1238;45996;-88
2023/06/24 07:41:42;;;;;;;16.80;13.40;;;;;;;18.84;100.00;100892.45;183194;1237;45909;-88
2023/06/24 07:45:44;;;;;;;15.20;13.00;;;;;;;18.70;100.00;100894.45;182639;1236;60126;-90
2023/06/24 07:49:46;;;;;;;15.80;13.70;;;;;;;18.73;100.00;100891.47;182800;1240;44075;-87
2023/06/24 07:53:48;;;;;;;21.50;15.60;;;;;;;18.94;100.00;100891.71;182351;1238;46103;-87
2023/06/24 07:57:50;;;;;;;17.30;15.30;;;;;;;19.04;100.00;100892.61;182353;1237;46132;-88
2023/06/24 08:01:52;;;;;;;15.30;11.70;;;;;;;19.09;100.00;100892.50;184096;1236;46042;-88
2023/06/24 08:05:54;;;;;;;14.10;12.60;;;;;;;19.21;100.00;100890.83;182673;1236;60219;-89
2023/06/24 08:09:56;;;;;;;19.60;14.40;;;;;;;19.46;100.00;100890.27;182384;1235;46064;-88
2023/06/24 08:13:58;;;;;;;18.70;14.40;;;;;;;19.58;100.00;100888.54;181995;1236;45987;-89
2023/06/24 08:18:00;;;;;;;18.80;16.60;;;;;;;19.91;100.00;100893.89;181873;1237;46071;-88
2023/06/24 08:22:02;;;;;;;18.10;13.40;;;;;;;20.39;100.00;100888.87;181906;1236;45802;-88
2023/06/24 08:26:04;;;;;;;17.70;13.30;;;;;;;20.75;100.00;100891.29;181708;1236;59364;-87
2023/06/24 08:30:18;;;;;;;16.50;12.60;;;;;;;20.91;100.00;100896.29;181843;1236;46191;-88
2023/06/24 08:34:20;;;;;;;20.50;16.50;;;;;;;21.12;100.00;100897.27;181799;1236;46097;-87
2023/06/24 08:38:23;;;;;;;14.30;12.10;;;;;;;21.32;100.00;100901.05;181808;1236;46172;-87
2023/06/24 08:42:25;;;;;;;13.50;12.00;;;;;;;21.38;100.00;100917.07;181868;1238;45887;-88
2023/06/24 08:46:27;;;;;;;14.00;11.50;;;;;;;21.54;100.00;100914.80;182039;1237;59596;-86
2023/06/24 08:50:36;;;;;;;19.00;11.60;;;;;;;21.68;100.00;100913.17;181969;1236;46117;-87
2023/06/24 08:54:41;;;;;;;12.50;9.40;;;;;;;21.75;100.00;100915.38;183264;1240;46099;-88
2023/06/24 08:58:44;;;;;;;13.50;11.90;;;;;;;21.86;100.00;100921.16;183219;1236;45969;-88
2023/06/24 09:02:45;;;;;;;11.90;9.10;;;;;;;22.15;100.00;100911.70;182574;1240;46055;-85
2023/06/24 09:06:48;;;;;;;12.50;9.30;;;;;;;22.25;100.00;100903.42;182560;1236;59752;-85
2023/06/24 09:10:55;;;;;;;14.40;8.70;;;;;;;22.48;100.00;100901.38;183358;1236;44380;-85
2023/06/24 09:14:57;;;;;;;8.10;7.10;;;;;;;22.73;99.42;100898.75;182624;1236;43953;-86
2023/06/24 09:18:59;;;;;;;8.80;7.70;;;;;;;22.83;98.36;100898.03;182559;1236;46083;-86
2023/06/24 09:23:03;;;;;;;7.70;6.80;;;;;;;23.01;99.11;100905.91;182552;1236;45984;-85
2023/06/24 09:27:05;;;;;;;9.80;6.40;;;;;;;23.22;91.42;100904.73;183750;1236;57977;-86
2023/06/24 09:31:08;;;;;;;9.60;6.50;;;;;;;23.39;92.69;100901.05;182182;1240;45938;-86
2023/06/24 09:35:22;;;;;;;13.40;6.90;;;;;;;23.38;92.79;100907.83;184135;1236;44146;-85
2023/06/24 09:39:29;;;;;;;11.60;7.00;;;;;;;23.25;94.82;100909.69;185687;1239;43708;-86
2023/06/24 09:43:36;;;;;;;6.70;5.90;;;;;;;23.34;93.39;100903.45;185208;1236;45907;-86
2023/06/24 09:47:41;;;;;;;7.50;6.80;;;;;;;23.44;89.27;100902.19;184132;1236;58755;-86
2023/06/24 09:51:47;;;;;;;7.70;5.70;;;;;;;23.45;84.11;100896.80;183391;1236;45582;-86
2023/06/24 09:55:50;;;;;;;7.40;5.40;;;;;;;23.63;82.69;100894.58;185537;1236;43908;-86
2023/06/24 09:59:52;;;;;;;8.40;5.90;;;;;;;23.95;86.57;100887.56;183245;1241;45943;-87
2023/06/24 10:03:55;;;;;;;7.80;5.20;;;;;;;24.16;82.55;100884.00;182715;1235;45961;-86
2023/06/24 10:07:56;;;;;;;5.40;4.80;;;;;;;24.10;80.82;100878.98;183690;1239;59388;-87
2023/06/24 10:11:58;;;;;;;8.30;6.40;;;;;;;24.21;84.98;100877.03;183637;1236;45986;-86
2023/06/24 10:16:00;;;;;;;8.10;6.50;;;;;;;24.33;82.46;100868.65;182737;1236;46071;-87
2023/06/24 10:20:06;;;;;;;6.30;4.80;;;;;;;24.46;80.70;100864.52;182461;1240;46296;-87
2023/06/24 10:24:10;;;;;;;7.70;6.30;;;;;;;24.64;82.14;100865.98;183025;1235;45548;-87
2023/06/24 10:28:12;;;;;;;7.40;6.10;;;;;;;24.79;81.81;100868.14;182329;1237;58103;-87
2023/06/24 10:32:15;;;;;;;6.30;5.70;;;;;;;24.87;83.10;100868.86;182829;1236;46223;-87
2023/06/24 10:36:32;;;;;;;7.00;5.60;;;;;;;24.86;81.22;100868.77;183123;1236;46107;-87
2023/06/24 10:40:42;;;;;;;6.40;5.10;;;;;;;24.98;78.94;100863.35;183672;1240;46029;-87
2023/06/24 10:44:48;;;;;;;6.90;5.40;;;;;;;25.14;75.78;100857.96;182559;1236;46092;-87
2023/06/24 10:48:50;;;;;;;6.70;5.90;;;;;;;25.04;77.13;100849.21;183691;1236;57741;-87
2023/06/24 10:52:55;;;;;;;7.70;5.00;;;;;;;24.87;77.11;100846.60;182908;1236;45949;-87
2023/06/24 10:56:57;;;;;;;7.00;6.30;;;;;;;24.72;78.50;100839.10;182533;1240;46040;-87
2023/06/24 11:01:09;;;;;;;11.60;7.10;;;;;;;24.73;79.25;100837.72;182606;1238;46063;-86
2023/06/24 11:05:11;;;;;;;6.50;4.80;;;;;;;24.93;77.89;100845.52;182490;1236;46022;-87
2023/06/24 11:09:12;;;;;;;8.30;4.90;;;;;;;24.89;74.97;100845.89;182585;1236;57969;-87
2023/06/24 11:13:15;;;;;;;6.90;5.20;;;;;;;24.70;78.07;100839.55;184324;1236;45881;-87
2023/06/24 11:17:19;;;;;;;6.40;5.70;;;;;;;24.51;81.45;100834.86;183317;1236;44109;-88
2023/06/24 11:26:14;;;;;;;6.60;5.10;;;;;;;24.79;76.76;100827.28;185963;1233;87346;-57
2023/06/24 11:30:24;;;;;;;6.10;5.40;;;;;;;25.03;77.88;100817.81;185898;1233;84206;-56
2023/06/24 11:34:27;;;;;;;5.90;4.70;;;;;;;25.36;78.87;100814.23;185833;1233;43878;-57
2023/06/24 11:38:32;;;;;;;6.90;4.80;;;;;;;25.49;72.65;100812.05;185685;1233;46014;-55
2023/06/24 11:42:40;;;;;;;5.50;4.90;;;;;;;25.35;76.24;100816.03;185470;1233;46041;-57
2023/06/24 11:46:43;;;;;;;9.20;5.00;;;;;;;25.21;75.95;100818.56;185684;1233;43751;-58
2023/06/24 11:50:54;;;;;;;10.40;6.00;;;;;;;25.08;74.99;100816.34;185503;1233;58522;-58
2023/06/24 11:54:57;;;;;;;7.50;5.50;;;;;;;25.06;74.51;100804.88;185472;1235;43721;-57
2023/06/24 11:58:58;;;;;;;5.60;5.00;;;;;;;25.05;73.84;100798.92;185474;1233;45897;-57
2023/06/24 12:03:08;;;;;;;6.70;5.30;;;;;;;25.04;74.54;100799.85;185649;1233;43475;-58
2023/06/24 12:07:23;;;;;;;7.10;6.40;;;;;;;25.29;76.62;100794.88;185551;1233;45899;-57
2023/06/24 12:12:17;;;;;;;9.00;5.20;;;;;;;25.58;72.36;100793.98;185582;1233;57834;-57
2023/06/24 12:16:22;;;;;;;7.10;3.80;;;;;;;25.91;70.77;100773.96;185560;1233;44987;-58
2023/06/24 12:20:47;;;;;;;8.90;4.80;;;;;;;26.02;67.39;100768.52;185571;1233;43584;-57
2023/06/24 12:24:48;;;;;;;5.30;3.40;;;;;;;26.15;66.17;100766.98;185457;1233;43533;-57
2023/06/24 12:28:50;;;;;;;3.90;3.50;;;;;;;26.31;68.07;100762.48;185635;1233;43554;-57
2023/06/24 12:32:52;;;;;;;9.30;4.20;;;;;;;26.54;67.10;100760.98;185765;1233;57737;-58
2023/06/24 12:36:54;;;;;;;3.10;2.70;;;;;;;26.61;62.37;100762.47;185948;1236;43883;-56
2023/06/24 12:40:57;;;;;;;10.90;4.20;;;;;;;26.35;64.96;100763.83;185819;1233;44919;-56
2023/06/24 12:44:59;;;;;;;5.20;3.70;;;;;;;26.10;64.76;100765.20;185642;1232;43625;-55
2023/06/24 12:49:01;;;;;;;4.70;4.10;;;;;;;25.70;65.72;100766.66;185858;1233;43615;-58
2023/06/24 12:53:03;;;;;;;4.20;3.40;;;;;;;25.76;67.85;100753.41;185852;1233;58388;-57
2023/06/24 12:57:05;;;;;;;5.90;3.70;;;;;;;25.82;64.58;100747.52;185610;1236;43790;-57
2023/06/24 13:01:44;;;;;;;4.80;3.80;;;;;;;26.07;63.13;100754.48;185912;1233;45970;-56
2023/06/24 13:06:01;;;;;;;4.70;3.90;;;;;;;26.31;61.79;100754.45;185851;1234;43611;-58
2023/06/24 13:10:05;;;;;;;6.30;3.90;;;;;;;26.58;63.69;100746.77;185775;1232;44853;-57
2023/06/24 13:14:10;;;;;;;6.90;4.00;;;;;;;26.87;64.59;100744.33;185808;1233;59274;-57
2023/06/24 13:18:12;;;;;;;5.00;4.60;;;;;;;27.07;64.33;100742.89;185835;1234;45981;-57
2023/06/24 13:22:13;;;;;;;8.30;4.00;;;;;;;27.19;58.52;100737.82;185905;1234;43849;-58
2023/06/24 13:26:15;;;;;;;6.00;3.80;;;;;;;27.10;57.80;100741.31;185977;1233;45871;-57
2023/06/24 13:30:21;;;;;;;5.00;4.50;;;;;;;26.99;56.84;100742.17;185740;1233;44169;-57
2023/06/24 13:34:23;;;;;;;4.90;3.60;;;;;;;27.04;57.15;100741.07;185740;1234;58304;-58
2023/06/24 13:38:25;;;;;;;7.10;4.40;;;;;;;27.18;58.79;100739.98;185943;1233;43859;-57
2023/06/24 13:42:30;;;;;;;4.30;3.90;;;;;;;27.30;57.92;100734.69;185835;1232;44269;-57
2023/06/24 13:46:32;;;;;;;8.60;4.40;;;;;;;27.43;59.86;100730.22;185523;1232;45886;-58
2023/06/24 13:55:25;;;;;;;4.40;3.90;;;;;;;26.82;59.12;100736.31;185913;1234;58746;-56
2023/06/24 13:59:54;;;;;;;7.70;3.80;;;;;;;26.35;61.19;100733.66;177663;1235;10160093;-56
2023/06/24 14:04:25;;;;;;;5.70;3.80;;;;;;;26.02;63.61;100733.88;185592;1237;57900;-56
2023/06/24 14:08:38;;;;;;;5.00;4.50;;;;;;;26.07;62.45;100728.65;185433;1237;46022;-55
2023/06/24 14:12:42;;;;;;;5.80;4.80;;;;;;;26.31;62.18;100724.77;185601;1234;43637;-55
2023/06/24 14:16:45;;;;;;;5.50;4.70;;;;;;;26.46;59.30;100725.86;185526;1234;45886;-56
2023/06/24 14:20:46;;;;;;;12.60;5.50;;;;;;;26.63;58.76;100725.95;185591;1234;44881;-55
2023/06/24 14:24:48;;;;;;;5.70;5.00;;;;;;;26.77;59.25;100724.58;185476;1234;58352;-55
2023/06/24 14:28:50;;;;;;;5.50;4.90;;;;;;;27.04;58.60;100726.80;185551;1234;45768;-56
2023/06/24 14:32:51;;;;;;;6.60;5.20;;;;;;;27.24;58.83;100726.88;185560;1237;46006;-56
2023/06/24 14:36:53;;;;;;;6.10;5.40;;;;;;;27.25;59.67;100724.49;185464;1234;43471;-58
2023/06/24 14:40:56;;;;;;;5.90;5.40;;;;;;;27.47;62.72;100719.79;185482;1235;46085;-56
2023/06/24 14:45:01;;;;;;;6.90;5.80;;;;;;;27.52;61.61;100722.14;185460;1234;60442;-55
2023/06/24 14:49:03;;;;;;;9.60;5.90;;;;;;;27.64;63.11;100721.08;185414;1237;44480;-56
2023/06/24 14:53:06;;;;;;;6.70;6.00;;;;;;;27.66;60.07;100718.79;185631;1234;43770;-56
2023/06/24 14:57:41;;;;;;;8.10;6.40;;;;;;;27.54;59.43;100717.58;185943;1233;92684;-92
2023/06/24 15:34:40;;;;;;;9.40;7.80;;;;;;;26.22;72.83;100705.27;184931;1238;58481;-56
2023/06/24 15:38:42;;;;;;;10.70;9.60;;;;;;;26.13;71.34;100701.36;184935;1240;45934;-55
2023/06/24 15:42:45;;;;;;;9.50;7.80;;;;;;;25.94;71.18;100697.11;185038;1237;44967;-56
2023/06/24 15:46:46;;;;;;;10.20;7.70;;;;;;;25.75;72.41;100699.94;184999;1238;43526;-56
2023/06/24 15:50:48;;;;;;;10.30;9.30;;;;;;;25.83;74.14;100697.21;185054;1237;43537;-56
2023/06/24 15:54:50;;;;;;;11.20;8.50;;;;;;;26.14;72.78;100694.86;185002;1240;58452;-57
2023/06/24 15:58:52;;;;;;;9.10;7.90;;;;;;;26.56;72.05;100692.73;184973;1237;43742;-56
2023/06/24 16:03:01;;;;;;;11.10;8.50;;;;;;;26.85;68.14;100690.85;184840;1238;45870;-56
2023/06/24 16:07:04;;;;;;;7.00;6.40;;;;;;;27.10;67.04;100691.00;185023;1237;44721;-55
2023/06/24 16:11:07;;;;;;;19.70;7.40;;;;;;;27.04;64.40;100691.09;185129;1238;45931;-56
2023/06/24 16:15:37;;;;;;;13.80;7.60;;;;;;;27.03;64.92;100693.80;185112;1237;58309;-55
2023/06/24 16:19:47;;;;;;;11.30;7.60;;;;;;;26.94;65.87;100697.41;185382;1238;43793;-55
2023/06/24 16:23:51;;;;;;;7.90;7.10;;;;;;;26.85;67.11;100700.17;185137;1238;45951;-57
2023/06/24 16:27:53;;;;;;;11.40;6.10;;;;;;;26.76;66.26;100698.95;185141;1238;46395;-55
2023/06/24 16:32:22;;;;;;;9.80;6.40;;;;;;;26.59;64.51;100695.14;185205;1237;43446;-54
2023/06/24 16:36:24;;;;;;;5.10;4.60;;;;;;;26.60;65.61;100698.61;185097;1237;57640;-56
2023/06/24 16:40:26;;;;;;;7.30;6.10;;;;;;;26.57;66.37;100702.42;185162;1238;43565;-55
2023/06/24 16:44:37;;;;;;;7.10;5.40;;;;;;;26.44;66.01;100700.37;185046;1237;46196;-56
2023/06/24 16:48:39;;;;;;;8.10;7.20;;;;;;;26.30;66.77;100705.73;185124;1237;43750;-56
2023/06/24 16:52:40;;;;;;;8.20;7.00;;;;;;;26.09;69.12;100710.61;185050;1237;43499;-56
2023/06/24 16:56:43;;;;;;;7.50;6.40;;;;;;;25.89;71.62;100713.45;185123;1238;57460;-56
2023/06/24 17:00:46;;;;;;;9.90;6.70;;;;;;;25.74;73.39;100710.23;185088;1237;43998;-56
2023/06/24 17:04:47;;;;;;;11.00;8.40;;;;;;;25.65;74.85;100712.71;185112;1236;45844;-56
2023/06/24 17:08:58;;;;;;;8.50;6.40;;;;;;;25.44;73.68;100712.73;185101;1238;45941;-56
2023/06/24 17:12:59;;;;;;;8.80;7.90;;;;;;;25.15;72.83;100713.13;185086;1237;43856;-56
2023/06/24 17:17:13;;;;;;;7.30;6.40;;;;;;;25.00;72.44;100712.56;185120;1237;60054;-56
2023/06/24 17:21:14;;;;;;;7.60;6.80;;;;;;;24.82;70.70;100711.20;185117;1238;44558;-55
2023/06/24 17:25:19;;;;;;;7.50;6.70;;;;;;;24.69;71.70;100708.58;185268;1237;43998;-56
2023/06/24 17:29:22;;;;;;;7.70;6.40;;;;;;;24.58;72.13;100711.46;185181;1237;45894;-56
2023/06/24 17:33:32;;;;;;;6.80;5.60;;;;;;;24.52;72.63;100707.75;185083;1236;43539;-55
2023/06/24 17:37:34;;;;;;;6.70;5.90;;;;;;;24.40;71.36;100709.02;185194;1238;58629;-55
2023/06/24 17:41:36;;;;;;;6.30;5.70;;;;;;;24.30;71.81;100708.69;185122;1237;43758;-56
2023/06/24 17:45:43;;;;;;;8.60;6.40;;;;;;;24.21;72.55;100705.23;185192;1238;43617;-55
2023/06/24 17:49:44;;;;;;;9.40;7.50;;;;;;;24.07;72.22;100704.66;185209;1238;43579;-55
2023/06/24 17:53:46;;;;;;;9.90;7.00;;;;;;;24.00;73.09;100703.48;185287;1237;43545;-55
2023/06/24 17:57:48;;;;;;;7.90;6.80;;;;;;;23.93;74.32;100701.88;185254;1237;59534;-56
2023/06/24 18:01:49;;;;;;;7.20;6.10;;;;;;;23.77;74.36;100703.17;185124;1238;46052;-55
2023/06/24 18:05:56;;;;;;;8.30;6.80;;;;;;;23.67;75.92;100702.95;185238;1237;44568;-57
2023/06/24 18:09:58;;;;;;;8.30;6.70;;;;;;;23.58;75.72;100702.00;185130;1238;43757;-56
2023/06/24 18:14:02;;;;;;;9.20;7.40;;;;;;;23.43;76.35;100705.20;184990;1237;43538;-56
2023/06/24 18:18:04;;;;;;;10.70;6.60;;;;;;;23.30;76.54;100702.23;185104;1238;57411;-55
2023/06/24 18:22:12;;;;;;;9.40;7.20;;;;;;;23.19;77.27;100706.52;185221;1238;43744;-56
2023/06/24 18:26:16;;;;;;;8.20;7.50;;;;;;;23.11;79.28;100708.11;185049;1238;46080;-56
2023/06/24 18:30:18;;;;;;;10.70;9.00;;;;;;;23.08;82.28;100709.50;185166;1238;43809;-56
2023/06/24 18:34:20;;;;;;;7.20;6.20;;;;;;;23.04;83.92;100714.06;185113;1238;46020;-55
2023/06/24 18:38:23;;;;;;;8.70;7.00;;;;;;;22.82;83.89;100714.95;184892;1238;58452;-59
2023/06/24 18:42:30;;;;;;;10.80;7.60;;;;;;;22.68;84.47;100717.21;185024;1238;43882;-56
2023/06/24 18:46:34;;;;;;;9.80;7.50;;;;;;;22.48;84.72;100714.27;185225;1237;43837;-55
2023/06/24 18:50:36;;;;;;;7.70;6.90;;;;;;;22.31;86.15;100715.06;185078;1238;43889;-50
2023/06/24 18:54:38;;;;;;;8.60;6.60;;;;;;;22.18;86.68;100714.27;185222;1238;44577;-55
2023/06/24 18:58:39;;;;;;;7.20;6.40;;;;;;;22.00;87.29;100715.57;185171;1238;58608;-56
2023/06/24 19:02:44;;;;;;;9.00;8.10;;;;;;;21.88;87.39;100721.44;185005;1237;45988;-55
2023/06/24 19:06:46;;;;;;;9.30;7.10;;;;;;;21.79;88.40;100725.77;185179;1237;46116;-55
2023/06/24 19:10:47;;;;;;;8.00;6.40;;;;;;;21.71;88.51;100730.89;185160;1238;44858;-55
2023/06/24 19:14:49;;;;;;;12.60;7.30;;;;;;;21.69;89.50;100730.81;185170;1237;43900;-55
2023/06/24 19:18:51;;;;;;;7.50;6.50;;;;;;;21.64;89.81;100731.27;185222;1237;58456;-55
2023/06/24 19:23:43;;;;;;;15.50;8.00;;;;;;;21.56;89.92;100729.08;185039;1236;43748;-53
2023/06/24 19:27:45;;;;;;;8.60;7.70;;;;;;;21.46;89.93;100730.45;185256;1237;43502;-53
2023/06/24 19:31:47;;;;;;;7.20;6.50;;;;;;;21.34;90.03;100734.03;185278;1238;43754;-50
2023/06/24 19:35:48;;;;;;;10.70;8.00;;;;;;;21.36;91.26;100734.52;185032;1238;45235;-48
2023/06/24 19:39:50;;;;;;;9.20;7.50;;;;;;;21.23;91.08;100742.47;185168;1237;57193;-52